Time;durP1;ratioP1;P1;durP2;ratioP2;P2;SDS_P1;SDS_P2;PMS_P1;PMS_P2;Temp;Humidity;BMP_temperature;BMP_pressure;BME280_temperature;BME280_humidity;BME280_pressure;Samples;Min_cycle;Max_cycle;Signal;HPM_P1;HPM_P2
2023/11/16 00:00:49;;;;;;;0.00;0.00;;;;;;;;;;5068693;28;20029;-59
2023/11/16 00:03:16;;;;;;;0.17;0.17;;;;;;;;;;5066095;28;20116;-58
2023/11/16 00:05:43;;;;;;;11.03;0.53;;;;;;;;;;5066226;28;20115;-59
2023/11/16 00:08:10;;;;;;;1.07;0.20;;;;;;;;;;5066291;28;20384;-59
2023/11/16 00:10:39;;;;;;;0.10;0.10;;;;;;;;;;5067400;28;20032;-58
2023/11/16 00:13:06;;;;;;;0.30;0.27;;;;;;;;;;5073632;28;20028;-59
2023/11/16 00:15:35;;;;;;;0.10;0.03;;;;;;;;;;5074620;28;20024;-58
2023/11/16 00:18:03;;;;;;;1.03;0.30;;;;;;;;;;5075226;28;20079;-58
2023/11/16 00:20:30;;;;;;;0.33;0.20;;;;;;;;;;5074657;28;20487;-59
2023/11/16 00:22:57;;;;;;;0.20;0.10;;;;;;;;;;5073171;28;20039;-58
2023/11/16 00:25:23;;;;;;;0.40;0.20;;;;;;;;;;5069596;28;20090;-58
2023/11/16 00:27:50;;;;;;;0.20;0.10;;;;;;;;;;5069805;28;20380;-58
2023/11/16 00:30:17;;;;;;;0.33;0.17;;;;;;;;;;5069261;28;20375;-58
2023/11/16 00:32:44;;;;;;;0.40;0.20;;;;;;;;;;5070049;28;20029;-58
2023/11/16 00:35:11;;;;;;;0.10;0.10;;;;;;;;;;5074633;28;20017;-58
2023/11/16 00:37:37;;;;;;;0.30;0.20;;;;;;;;;;5074846;28;20027;-58
2023/11/16 00:40:05;;;;;;;0.23;0.10;;;;;;;;;;5074208;28;20033;-58
2023/11/16 00:42:31;;;;;;;0.40;0.20;;;;;;;;;;5074652;28;20425;-58
2023/11/16 00:44:58;;;;;;;0.30;0.20;;;;;;;;;;5073696;28;20033;-58
2023/11/16 00:47:24;;;;;;;0.00;0.00;;;;;;;;;;5068957;28;20026;-58
2023/11/16 00:49:51;;;;;;;1.70;0.50;;;;;;;;;;5069380;28;20417;-58
2023/11/16 00:52:20;;;;;;;0.53;0.50;;;;;;;;;;5068752;28;20487;-58
2023/11/16 00:54:48;;;;;;;8.33;0.67;;;;;;;;;;5069061;28;20040;-58
2023/11/16 00:57:17;;;;;;;1.93;0.43;;;;;;;;;;5074221;28;20051;-58
2023/11/16 00:59:47;;;;;;;0.63;0.53;;;;;;;;;;5074181;28;20028;-58
2023/11/16 01:02:14;;;;;;;1.00;0.43;;;;;;;;;;5074182;28;20050;-58
2023/11/16 01:04:41;;;;;;;0.90;0.30;;;;;;;;;;5074090;28;20467;-58
2023/11/16 01:07:13;;;;;;;0.50;0.33;;;;;;;;;;5074292;28;20417;-57
2023/11/16 01:09:42;;;;;;;0.70;0.40;;;;;;;;;;5068668;28;20025;-58
2023/11/16 01:12:15;;;;;;;0.10;0.10;;;;;;;;;;5068536;28;20085;-58
2023/11/16 01:14:42;;;;;;;1.33;0.50;;;;;;;;;;5068799;28;20036;-58
2023/11/16 01:17:18;;;;;;;0.53;0.37;;;;;;;;;;5068789;28;20538;-58
2023/11/16 01:19:46;;;;;;;0.67;0.30;;;;;;;;;;5074210;28;20060;-59
2023/11/16 01:22:18;;;;;;;0.37;0.20;;;;;;;;;;5073674;28;20024;-57
2023/11/16 01:24:45;;;;;;;0.13;0.10;;;;;;;;;;5073828;28;20048;-58
2023/11/16 01:27:25;;;;;;;0.60;0.20;;;;;;;;;;5073690;28;20123;-58
2023/11/16 01:29:52;;;;;;;0.87;0.37;;;;;;;;;;5073192;28;20154;-58
2023/11/16 01:32:19;;;;;;;0.40;0.20;;;;;;;;;;5068666;28;20502;-58
2023/11/16 01:34:46;;;;;;;11.97;0.80;;;;;;;;;;5068410;28;20482;-58
2023/11/16 01:37:13;;;;;;;1.80;0.30;;;;;;;;;;5068472;28;20024;-58
2023/11/16 01:39:39;;;;;;;0.40;0.27;;;;;;;;;;5068302;28;20063;-58
2023/11/16 01:42:09;;;;;;;0.57;0.40;;;;;;;;;;5072955;28;20024;-58
2023/11/16 01:44:36;;;;;;;0.10;0.10;;;;;;;;;;5073155;28;20107;-57
2023/11/16 01:47:06;;;;;;;1.40;0.23;;;;;;;;;;5073307;28;20056;-58
2023/11/16 01:49:32;;;;;;;0.53;0.30;;;;;;;;;;5073359;28;20436;-58
2023/11/16 01:51:59;;;;;;;0.50;0.37;;;;;;;;;;5073430;28;20035;-58
2023/11/16 01:54:26;;;;;;;0.33;0.30;;;;;;;;;;5067774;28;20020;-57
2023/11/16 01:56:53;;;;;;;0.60;0.40;;;;;;;;;;5068118;28;20024;-57
2023/11/16 01:59:20;;;;;;;0.80;0.30;;;;;;;;;;5068165;28;20028;-57
2023/11/16 02:01:47;;;;;;;0.60;0.30;;;;;;;;;;5067822;28;20086;-58
2023/11/16 02:04:15;;;;;;;0.63;0.40;;;;;;;;;;5071926;28;20036;-57
2023/11/16 02:06:42;;;;;;;0.27;0.20;;;;;;;;;;5073027;28;20406;-58
2023/11/16 02:09:10;;;;;;;0.10;0.10;;;;;;;;;;5071903;28;20070;-58
2023/11/16 02:11:37;;;;;;;0.30;0.20;;;;;;;;;;5072799;28;20024;-57
2023/11/16 02:14:04;;;;;;;0.20;0.10;;;;;;;;;;5072961;28;20495;-57
2023/11/16 02:16:31;;;;;;;0.10;0.10;;;;;;;;;;5068644;28;20513;-58
2023/11/16 02:18:58;;;;;;;0.10;0.10;;;;;;;;;;5067749;28;20024;-58
2023/11/16 02:21:26;;;;;;;0.07;0.07;;;;;;;;;;5067747;28;20036;-57
2023/11/16 02:23:53;;;;;;;0.43;0.20;;;;;;;;;;5067223;28;20041;-57
2023/11/16 02:26:20;;;;;;;0.97;0.40;;;;;;;;;;5070881;28;20509;-57
2023/11/16 02:28:47;;;;;;;0.10;0.10;;;;;;;;;;5072620;28;20082;-57
2023/11/16 02:31:18;;;;;;;0.10;0.10;;;;;;;;;;5072233;28;20036;-57
2023/11/16 02:33:45;;;;;;;0.37;0.20;;;;;;;;;;5072549;28;20024;-57
2023/11/16 02:36:11;;;;;;;0.70;0.60;;;;;;;;;;5071461;28;20446;-58
2023/11/16 02:38:38;;;;;;;0.13;0.13;;;;;;;;;;5069305;28;20467;-57
2023/11/16 02:41:07;;;;;;;0.33;0.20;;;;;;;;;;5067239;28;20029;-58
2023/11/16 02:43:34;;;;;;;0.20;0.03;;;;;;;;;;5067187;28;20047;-57
2023/11/16 02:46:03;;;;;;;0.57;0.30;;;;;;;;;;5067042;28;20024;-59
2023/11/16 02:48:31;;;;;;;0.40;0.30;;;;;;;;;;5069877;28;20551;-57
2023/11/16 02:50:57;;;;;;;0.57;0.30;;;;;;;;;;5072192;28;20139;-57
2023/11/16 02:53:24;;;;;;;0.67;0.40;;;;;;;;;;5071662;28;20032;-58
2023/11/16 02:55:51;;;;;;;0.20;0.20;;;;;;;;;;5072285;28;20126;-58
2023/11/16 02:58:17;;;;;;;0.27;0.20;;;;;;;;;;5071859;28;20025;-57
2023/11/16 03:00:44;;;;;;;1.03;0.60;;;;;;;;;;5069460;28;20051;-57
2023/11/16 03:03:11;;;;;;;3.70;0.80;;;;;;;;;;5066943;28;20064;-57
2023/11/16 03:05:37;;;;;;;1.30;0.57;;;;;;;;;;5066602;28;20081;-57
2023/11/16 03:08:04;;;;;;;1.27;0.60;;;;;;;;;;5066318;28;20052;-57
2023/11/16 03:10:32;;;;;;;2.50;0.80;;;;;;;;;;5061744;28;20035;-57
2023/11/16 03:13:03;;;;;;;0.97;0.57;;;;;;;;;;5051938;28;20033;-57
2023/11/16 03:15:30;;;;;;;0.30;0.20;;;;;;;;;;5051942;28;20086;-57
2023/11/16 03:17:57;;;;;;;3.37;1.27;;;;;;;;;;5052231;28;21068;-57
2023/11/16 03:20:25;;;;;;;2.80;0.63;;;;;;;;;;5051862;28;20025;-57
2023/11/16 03:22:52;;;;;;;0.77;0.50;;;;;;;;;;5053598;28;20111;-57
2023/11/16 03:25:20;;;;;;;0.73;0.30;;;;;;;;;;5046756;28;20512;-57
2023/11/16 03:27:46;;;;;;;1.70;0.67;;;;;;;;;;5046554;28;20064;-57
2023/11/16 03:30:16;;;;;;;0.70;0.63;;;;;;;;;;5046514;28;20100;-57
2023/11/16 03:32:45;;;;;;;0.83;0.60;;;;;;;;;;5047766;28;20081;-57
2023/11/16 03:35:15;;;;;;;1.47;0.93;;;;;;;;;;5056209;28;20082;-57
2023/11/16 03:37:44;;;;;;;0.60;0.40;;;;;;;;;;5058527;28;20033;-57
2023/11/16 03:40:12;;;;;;;0.77;0.60;;;;;;;;;;5051656;28;20120;-57
2023/11/16 03:42:39;;;;;;;1.27;0.70;;;;;;;;;;5051714;28;20817;-57
2023/11/16 03:45:06;;;;;;;0.80;0.50;;;;;;;;;;5054142;28;20032;-57
2023/11/16 03:47:35;;;;;;;0.40;0.37;;;;;;;;;;5070133;28;20689;-57
2023/11/16 03:50:04;;;;;;;0.40;0.40;;;;;;;;;;5068655;28;20365;-57
2023/11/16 03:52:31;;;;;;;0.73;0.70;;;;;;;;;;5068901;28;20113;-57
2023/11/16 03:54:58;;;;;;;0.50;0.50;;;;;;;;;;5070470;28;20024;-57
2023/11/16 03:57:25;;;;;;;0.63;0.43;;;;;;;;;;5072350;28;20025;-57
2023/11/16 03:59:52;;;;;;;1.43;0.83;;;;;;;;;;5055426;28;20033;-57
2023/11/16 04:02:19;;;;;;;1.07;0.40;;;;;;;;;;5057893;28;20021;-57
2023/11/16 04:04:47;;;;;;;0.63;0.50;;;;;;;;;;5066504;28;20499;-56
2023/11/16 04:07:15;;;;;;;0.30;0.30;;;;;;;;;;5074356;28;20075;-57
2023/11/16 04:09:42;;;;;;;1.30;0.73;;;;;;;;;;5052301;28;20064;-57
2023/11/16 04:12:09;;;;;;;0.97;0.47;;;;;;;;;;5067022;28;20459;-57
2023/11/16 04:14:39;;;;;;;1.40;0.63;;;;;;;;;;5069974;28;20025;-57
2023/11/16 04:17:09;;;;;;;1.73;0.70;;;;;;;;;;5070188;28;20044;-57
2023/11/16 04:19:36;;;;;;;0.40;0.30;;;;;;;;;;5075089;28;20028;-56
2023/11/16 04:22:04;;;;;;;2.00;0.40;;;;;;;;;;5075145;28;20029;-57
2023/11/16 04:24:31;;;;;;;0.60;0.40;;;;;;;;;;5074222;28;20048;-57
2023/11/16 04:26:57;;;;;;;0.73;0.47;;;;;;;;;;5075048;28;20376;-56
2023/11/16 04:29:32;;;;;;;0.80;0.40;;;;;;;;;;5074377;28;20498;-57
2023/11/16 04:31:59;;;;;;;15.85;0.77;;;;;;;;;;5069449;28;20093;-57
2023/11/16 04:34:27;;;;;;;0.40;0.40;;;;;;;;;;5070096;28;20111;-57
2023/11/16 04:36:57;;;;;;;0.47;0.40;;;;;;;;;;5069367;28;20032;-57
2023/11/16 04:39:24;;;;;;;0.73;0.50;;;;;;;;;;5069299;28;20024;-57
2023/11/16 04:41:51;;;;;;;0.20;0.20;;;;;;;;;;5074773;28;20025;-57
2023/11/16 04:44:17;;;;;;;0.80;0.60;;;;;;;;;;5074228;28;20109;-57
2023/11/16 04:46:48;;;;;;;0.43;0.23;;;;;;;;;;5074343;28;20488;-56
2023/11/16 04:49:16;;;;;;;1.43;0.60;;;;;;;;;;5074790;28;20363;-57
2023/11/16 04:51:44;;;;;;;0.33;0.30;;;;;;;;;;5074558;28;20025;-57
2023/11/16 04:54:11;;;;;;;0.60;0.30;;;;;;;;;;5069643;28;20033;-58
2023/11/16 04:56:37;;;;;;;0.30;0.30;;;;;;;;;;5069640;28;20031;-57
2023/11/16 04:59:05;;;;;;;0.37;0.30;;;;;;;;;;5068377;28;20982;-57
2023/11/16 05:01:31;;;;;;;1.20;0.40;;;;;;;;;;5068706;28;20028;-57
2023/11/16 05:03:58;;;;;;;0.67;0.40;;;;;;;;;;5073484;28;20033;-56
2023/11/16 05:06:25;;;;;;;0.40;0.20;;;;;;;;;;5074322;28;20036;-57
2023/11/16 05:08:51;;;;;;;0.30;0.23;;;;;;;;;;5074399;28;20056;-56
2023/11/16 05:11:22;;;;;;;0.47;0.37;;;;;;;;;;5073988;28;20470;-56
2023/11/16 05:13:49;;;;;;;0.13;0.13;;;;;;;;;;5073695;28;20028;-57
2023/11/16 05:16:19;;;;;;;0.57;0.40;;;;;;;;;;5069755;28;20033;-57
2023/11/16 05:18:45;;;;;;;0.10;0.10;;;;;;;;;;5068723;28;20031;-57
2023/11/16 05:21:12;;;;;;;0.93;0.53;;;;;;;;;;5069158;28;20100;-57
2023/11/16 05:23:41;;;;;;;0.20;0.20;;;;;;;;;;5068793;28;20465;-57
2023/11/16 05:26:08;;;;;;;0.67;0.30;;;;;;;;;;5072723;28;20082;-56
2023/11/16 05:28:35;;;;;;;1.70;0.40;;;;;;;;;;5060925;28;20032;-57
2023/11/16 05:31:04;;;;;;;0.53;0.47;;;;;;;;;;5053792;28;20545;-57
2023/11/16 05:33:32;;;;;;;14.17;0.63;;;;;;;;;;5053857;28;20033;-56
2023/11/16 05:35:59;;;;;;;0.63;0.40;;;;;;;;;;5053361;28;20112;-56
2023/11/16 05:38:26;;;;;;;0.83;0.60;;;;;;;;;;5050045;28;20021;-56
2023/11/16 05:40:53;;;;;;;0.63;0.37;;;;;;;;;;5048302;28;20415;-57
2023/11/16 05:43:20;;;;;;;0.30;0.20;;;;;;;;;;5067948;28;20045;-57
2023/11/16 05:45:47;;;;;;;2.57;0.83;;;;;;;;;;5068584;28;20024;-57
2023/11/16 05:48:15;;;;;;;1.93;1.23;;;;;;;;;;5064425;28;20029;-57
2023/11/16 05:50:42;;;;;;;1.17;0.70;;;;;;;;;;5059692;28;20387;-57
2023/11/16 05:53:09;;;;;;;0.50;0.27;;;;;;;;;;5072638;28;20130;-57
2023/11/16 05:55:36;;;;;;;0.47;0.30;;;;;;;;;;5073234;28;20039;-57
2023/11/16 05:58:05;;;;;;;1.00;0.70;;;;;;;;;;5073029;28;20020;-56
2023/11/16 06:00:33;;;;;;;22.43;1.10;;;;;;;;;;5070020;28;20029;-56
2023/11/16 06:03:00;;;;;;;0.70;0.30;;;;;;;;;;5067784;28;20082;-57
2023/11/16 06:05:27;;;;;;;0.20;0.20;;;;;;;;;;5068234;28;20024;-57
2023/11/16 06:07:55;;;;;;;0.63;0.27;;;;;;;;;;5068114;28;20774;-56
2023/11/16 06:10:21;;;;;;;0.73;0.27;;;;;;;;;;5068815;28;20035;-56
2023/11/16 06:12:48;;;;;;;0.00;0.00;;;;;;;;;;5073150;28;20046;-56
2023/11/16 06:15:15;;;;;;;0.53;0.43;;;;;;;;;;5072188;28;20136;-56
2023/11/16 06:17:44;;;;;;;1.63;0.70;;;;;;;;;;5072536;28;20035;-56
2023/11/16 06:20:12;;;;;;;0.30;0.30;;;;;;;;;;5072934;28;20562;-56
2023/11/16 06:22:41;;;;;;;0.53;0.30;;;;;;;;;;5070237;28;20067;-57
2023/11/16 06:25:11;;;;;;;0.60;0.40;;;;;;;;;;5067474;28;20040;-56
2023/11/16 06:27:38;;;;;;;0.17;0.10;;;;;;;;;;5067287;28;20029;-56
2023/11/16 06:30:08;;;;;;;0.37;0.30;;;;;;;;;;5067616;28;20408;-56
2023/11/16 06:32:36;;;;;;;0.20;0.20;;;;;;;;;;5069706;28;20028;-56
2023/11/16 06:35:03;;;;;;;0.13;0.10;;;;;;;;;;5072471;28;20028;-57
2023/11/16 06:37:31;;;;;;;5.20;0.50;;;;;;;;;;5072808;28;20043;-56
2023/11/16 06:39:58;;;;;;;1.40;0.50;;;;;;;;;;5072081;28;20028;-56
2023/11/16 06:42:24;;;;;;;0.30;0.20;;;;;;;;;;5072515;28;20028;-56
2023/11/16 06:44:52;;;;;;;0.23;0.20;;;;;;;;;;5069861;28;20119;-57
2023/11/16 06:47:19;;;;;;;0.40;0.30;;;;;;;;;;5067590;28;20067;-57
2023/11/16 06:49:47;;;;;;;0.20;0.20;;;;;;;;;;5067181;28;20360;-56
2023/11/16 06:52:15;;;;;;;0.73;0.20;;;;;;;;;;5067298;28;20028;-57
2023/11/16 06:54:42;;;;;;;0.10;0.10;;;;;;;;;;5068771;28;20074;-56
2023/11/16 06:57:13;;;;;;;0.27;0.13;;;;;;;;;;5072073;28;20033;-56
2023/11/16 06:59:44;;;;;;;0.70;0.43;;;;;;;;;;5071604;28;20024;-57
2023/11/16 07:02:11;;;;;;;0.00;0.00;;;;;;;;;;5072110;28;20036;-56
2023/11/16 07:04:41;;;;;;;0.20;0.20;;;;;;;;;;5054188;28;20123;-56
2023/11/16 07:07:09;;;;;;;0.50;0.40;;;;;;;;;;5050083;28;20655;-57
2023/11/16 07:09:35;;;;;;;0.20;0.20;;;;;;;;;;5046649;28;20040;-56
2023/11/16 07:12:03;;;;;;;0.40;0.40;;;;;;;;;;5046855;28;20245;-57
2023/11/16 07:14:29;;;;;;;1.47;0.40;;;;;;;;;;5046691;28;20480;-57
2023/11/16 07:16:57;;;;;;;0.20;0.20;;;;;;;;;;5064606;28;20032;-57
2023/11/16 07:19:25;;;;;;;0.20;0.20;;;;;;;;;;5071561;28;20024;-56
2023/11/16 07:21:51;;;;;;;2.70;0.27;;;;;;;;;;5069174;28;20426;-56
2023/11/16 07:24:18;;;;;;;1.17;0.33;;;;;;;;;;5071065;28;20422;-56
2023/11/16 07:26:45;;;;;;;0.50;0.20;;;;;;;;;;5071881;28;20024;-56
2023/11/16 07:29:12;;;;;;;0.30;0.30;;;;;;;;;;5070150;28;20099;-57
2023/11/16 07:31:41;;;;;;;0.07;0.07;;;;;;;;;;5066193;28;20027;-57
2023/11/16 07:34:08;;;;;;;0.10;0.10;;;;;;;;;;5066497;28;20033;-57
2023/11/16 07:36:37;;;;;;;0.97;0.50;;;;;;;;;;5066769;28;20491;-57
2023/11/16 07:39:04;;;;;;;0.13;0.13;;;;;;;;;;5065880;28;20039;-57
2023/11/16 07:41:30;;;;;;;0.60;0.50;;;;;;;;;;5071561;28;20039;-57
2023/11/16 07:43:57;;;;;;;0.23;0.20;;;;;;;;;;5071421;28;20031;-56
2023/11/16 07:46:24;;;;;;;0.10;0.10;;;;;;;;;;5063604;28;20067;-57
2023/11/16 07:48:51;;;;;;;1.10;0.23;;;;;;;;;;5051741;28;20021;-56
2023/11/16 07:51:19;;;;;;;0.07;0.07;;;;;;;;;;5050817;28;20025;-57
2023/11/16 07:53:55;;;;;;;3.53;0.30;;;;;;;;;;5046518;28;20021;-56
2023/11/16 07:56:22;;;;;;;0.43;0.30;;;;;;;;;;5065369;28;20039;-56
2023/11/16 07:58:52;;;;;;;0.23;0.20;;;;;;;;;;5066250;28;20060;-57
2023/11/16 08:01:28;;;;;;;0.10;0.10;;;;;;;;;;5056623;28;20041;-56
2023/11/16 08:03:59;;;;;;;0.20;0.13;;;;;;;;;;5050927;28;20037;-57
2023/11/16 08:06:28;;;;;;;0.10;0.10;;;;;;;;;;5051322;28;20036;-56
2023/11/16 08:08:54;;;;;;;0.20;0.20;;;;;;;;;;5051453;28;20036;-56
2023/11/16 08:11:21;;;;;;;0.40;0.20;;;;;;;;;;5051347;28;20388;-56
2023/11/16 08:13:48;;;;;;;0.27;0.27;;;;;;;;;;5051918;28;20503;-57
2023/11/16 08:16:21;;;;;;;0.10;0.10;;;;;;;;;;5066152;28;20545;-57
2023/11/16 08:18:52;;;;;;;2.27;0.57;;;;;;;;;;5065811;28;20028;-57
2023/11/16 08:21:19;;;;;;;0.77;0.30;;;;;;;;;;5065832;28;20037;-57
2023/11/16 08:23:45;;;;;;;0.40;0.27;;;;;;;;;;5066034;28;20040;-57
2023/11/16 08:26:13;;;;;;;0.00;0.00;;;;;;;;;;5071284;28;20025;-57
2023/11/16 08:28:42;;;;;;;0.03;0.03;;;;;;;;;;5065661;28;20433;-56
2023/11/16 08:31:12;;;;;;;0.47;0.27;;;;;;;;;;5051341;28;20024;-57
2023/11/16 08:33:40;;;;;;;0.10;0.10;;;;;;;;;;5052829;28;20100;-57
2023/11/16 08:36:10;;;;;;;0.10;0.10;;;;;;;;;;5054463;28;20029;-56
2023/11/16 08:38:45;;;;;;;1.27;0.30;;;;;;;;;;5049665;28;20339;-56
2023/11/16 08:41:16;;;;;;;0.20;0.20;;;;;;;;;;5054168;28;20031;-56
2023/11/16 08:43:46;;;;;;;0.27;0.20;;;;;;;;;;5069461;28;20406;-56
2023/11/16 08:46:31;;;;;;;1.03;0.20;;;;;;;;;;5069463;28;20105;-56
2023/11/16 08:48:57;;;;;;;0.67;0.43;;;;;;;;;;5074564;28;20115;-56
2023/11/16 08:51:24;;;;;;;0.67;0.33;;;;;;;;;;5073045;28;20448;-56
2023/11/16 08:53:55;;;;;;;0.13;0.13;;;;;;;;;;5074409;28;20585;-56
2023/11/16 08:56:26;;;;;;;14.00;0.40;;;;;;;;;;5073946;28;20064;-56
2023/11/16 08:58:53;;;;;;;0.93;0.33;;;;;;;;;;5072735;28;20028;-56
2023/11/16 09:01:21;;;;;;;0.10;0.10;;;;;;;;;;5069227;28;20082;-56
2023/11/16 09:03:50;;;;;;;0.13;0.13;;;;;;;;;;5069345;28;20588;-56
2023/11/16 09:06:21;;;;;;;0.30;0.30;;;;;;;;;;5069132;28;20527;-56
2023/11/16 09:08:49;;;;;;;0.03;0.00;;;;;;;;;;5069511;28;20383;-56
2023/11/16 09:11:17;;;;;;;0.50;0.20;;;;;;;;;;5073312;28;20036;-57
2023/11/16 09:13:48;;;;;;;0.07;0.07;;;;;;;;;;5074098;28;20113;-56
2023/11/16 09:16:15;;;;;;;0.10;0.10;;;;;;;;;;5073919;28;20056;-56
2023/11/16 09:18:42;;;;;;;0.37;0.23;;;;;;;;;;5073437;28;20039;-56
2023/11/16 09:21:14;;;;;;;1.30;0.20;;;;;;;;;;5052945;28;20021;-56
2023/11/16 09:23:42;;;;;;;0.53;0.10;;;;;;;;;;5048511;28;20100;-56
2023/11/16 09:26:11;;;;;;;0.07;0.07;;;;;;;;;;5066001;28;20032;-56
2023/11/16 09:28:38;;;;;;;1.83;0.43;;;;;;;;;;5068655;28;20037;-56
2023/11/16 09:31:11;;;;;;;0.00;0.00;;;;;;;;;;5069043;28;20020;-56
2023/11/16 09:33:41;;;;;;;0.57;0.30;;;;;;;;;;5073022;28;20493;-56
2023/11/16 09:36:14;;;;;;;0.00;0.00;;;;;;;;;;5073865;28;20043;-56
2023/11/16 09:38:44;;;;;;;0.60;0.23;;;;;;;;;;5073649;28;20044;-56
2023/11/16 09:41:21;;;;;;;0.27;0.27;;;;;;;;;;5073219;28;20048;-56
2023/11/16 09:43:54;;;;;;;0.10;0.10;;;;;;;;;;5071694;28;20065;-56
2023/11/16 09:46:27;;;;;;;0.00;0.00;;;;;;;;;;5068392;28;20522;-56
2023/11/16 09:48:54;;;;;;;0.27;0.20;;;;;;;;;;5052813;28;20491;-56
2023/11/16 09:51:23;;;;;;;0.13;0.13;;;;;;;;;;5051242;28;20040;-56
2023/11/16 09:53:50;;;;;;;1.17;0.33;;;;;;;;;;5049246;28;20555;-56
2023/11/16 09:56:23;;;;;;;0.53;0.37;;;;;;;;;;5053163;28;20029;-56
2023/11/16 09:58:53;;;;;;;0.17;0.17;;;;;;;;;;5058911;28;20047;-56
2023/11/16 10:01:20;;;;;;;0.00;0.00;;;;;;;;;;5073183;28;20028;-56
2023/11/16 10:03:48;;;;;;;0.33;0.20;;;;;;;;;;5073174;28;20040;-57
2023/11/16 10:06:20;;;;;;;0.10;0.10;;;;;;;;;;5071359;28;20044;-56
2023/11/16 10:08:49;;;;;;;0.10;0.10;;;;;;;;;;5067359;28;20039;-56
2023/11/16 10:11:23;;;;;;;0.10;0.10;;;;;;;;;;5067240;28;20556;-56
2023/11/16 10:13:54;;;;;;;0.23;0.10;;;;;;;;;;5067332;28;20040;-56
2023/11/16 10:16:25;;;;;;;3.23;0.30;;;;;;;;;;5068684;28;20028;-56
2023/11/16 10:18:59;;;;;;;0.40;0.30;;;;;;;;;;5072990;28;20032;-56
2023/11/16 10:21:26;;;;;;;0.38;0.20;;;;;;;;;;5070192;28;20479;-56
2023/11/16 10:23:57;;;;;;;0.10;0.10;;;;;;;;;;5059902;28;20584;-56
2023/11/16 10:26:24;;;;;;;0.00;0.00;;;;;;;;;;5069715;28;20025;-56
2023/11/16 10:28:54;;;;;;;0.17;0.17;;;;;;;;;;5070401;28;20021;-56
2023/11/16 10:31:21;;;;;;;0.00;0.00;;;;;;;;;;5067207;28;20025;-56
2023/11/16 10:33:49;;;;;;;0.07;0.07;;;;;;;;;;5067193;28;20054;-56
2023/11/16 10:36:16;;;;;;;0.20;0.10;;;;;;;;;;5067101;28;20032;-56
2023/11/16 10:38:45;;;;;;;0.10;0.10;;;;;;;;;;5068405;28;20067;-56
2023/11/16 10:41:14;;;;;;;0.17;0.17;;;;;;;;;;5072102;28;20047;-56
2023/11/16 10:43:41;;;;;;;0.03;0.03;;;;;;;;;;5072034;28;20044;-56
2023/11/16 10:46:09;;;;;;;1.10;0.43;;;;;;;;;;5071942;28;20029;-56
2023/11/16 10:48:35;;;;;;;0.10;0.10;;;;;;;;;;5071543;28;20598;-56
2023/11/16 10:51:02;;;;;;;0.10;0.10;;;;;;;;;;5069864;28;20029;-57
2023/11/16 10:53:39;;;;;;;0.20;0.20;;;;;;;;;;5067039;28;20028;-56
2023/11/16 10:56:11;;;;;;;0.30;0.30;;;;;;;;;;5066179;28;20029;-58
2023/11/16 10:58:42;;;;;;;0.10;0.10;;;;;;;;;;5046855;28;20100;-56
2023/11/16 11:01:17;;;;;;;0.10;0.10;;;;;;;;;;5048576;28;20041;-56
2023/11/16 11:03:44;;;;;;;0.15;0.10;;;;;;;;;;5051739;28;20047;-56
2023/11/16 11:06:18;;;;;;;0.53;0.47;;;;;;;;;;5051699;28;20032;-56
2023/11/16 11:08:47;;;;;;;0.10;0.10;;;;;;;;;;5051927;28;20060;-56
2023/11/16 11:11:14;;;;;;;0.10;0.10;;;;;;;;;;5066369;28;20028;-56
2023/11/16 11:13:43;;;;;;;0.27;0.23;;;;;;;;;;5069575;28;20051;-56
2023/11/16 11:16:15;;;;;;;0.00;0.00;;;;;;;;;;5067172;28;20060;-56
2023/11/16 11:18:51;;;;;;;0.20;0.10;;;;;;;;;;5066905;28;20719;-56
2023/11/16 11:21:22;;;;;;;0.30;0.10;;;;;;;;;;5066668;28;20036;-57
2023/11/16 11:23:59;;;;;;;0.00;0.00;;;;;;;;;;5068716;28;20055;-56
2023/11/16 11:26:26;;;;;;;0.30;0.30;;;;;;;;;;5071544;28;20058;-56
2023/11/16 11:28:52;;;;;;;0.20;0.13;;;;;;;;;;5071336;28;20029;-56
2023/11/16 11:31:32;;;;;;;0.03;0.03;;;;;;;;;;5071873;28;20033;-56
2023/11/16 11:33:59;;;;;;;0.37;0.30;;;;;;;;;;5071803;28;20024;-56
2023/11/16 11:36:26;;;;;;;0.27;0.27;;;;;;;;;;5069110;28;20017;-56
2023/11/16 11:38:54;;;;;;;0.00;0.00;;;;;;;;;;5047666;28;20495;-56
2023/11/16 11:41:23;;;;;;;1.90;0.43;;;;;;;;;;5046165;28;20045;-56
2023/11/16 11:43:49;;;;;;;0.20;0.20;;;;;;;;;;5046179;28;20037;-56
2023/11/16 11:46:20;;;;;;;0.20;0.20;;;;;;;;;;5048899;28;20048;-56
2023/11/16 11:48:48;;;;;;;0.00;0.00;;;;;;;;;;5051831;28;20123;-56
2023/11/16 11:51:19;;;;;;;0.10;0.10;;;;;;;;;;5057612;28;20033;-56
2023/11/16 11:53:46;;;;;;;0.40;0.17;;;;;;;;;;5070089;28;20570;-56
2023/11/16 11:56:15;;;;;;;2.00;0.47;;;;;;;;;;5071322;28;20479;-56
2023/11/16 11:58:43;;;;;;;0.10;0.10;;;;;;;;;;5068383;28;20029;-56
2023/11/16 12:01:11;;;;;;;0.00;0.00;;;;;;;;;;5066030;28;20422;-56
2023/11/16 12:03:49;;;;;;;11.33;0.60;;;;;;;;;;5066263;28;20175;-56
2023/11/16 12:06:17;;;;;;;0.20;0.20;;;;;;;;;;5066432;28;20090;-56
2023/11/16 12:08:46;;;;;;;0.30;0.20;;;;;;;;;;5070782;28;20059;-56
2023/11/16 12:11:18;;;;;;;0.17;0.10;;;;;;;;;;5074687;28;20265;-56
2023/11/16 12:13:45;;;;;;;0.57;0.33;;;;;;;;;;5075264;28;20063;-56
2023/11/16 12:16:13;;;;;;;0.10;0.10;;;;;;;;;;5074902;28;20580;-56
2023/11/16 12:18:44;;;;;;;0.27;0.27;;;;;;;;;;5075064;28;20016;-56
2023/11/16 12:21:15;;;;;;;2.10;0.50;;;;;;;;;;5071901;28;20047;-56
2023/11/16 12:23:53;;;;;;;1.03;0.30;;;;;;;;;;5069894;28;20285;-56
2023/11/16 12:26:20;;;;;;;1.67;0.60;;;;;;;;;;5069113;28;20261;-56
2023/11/16 12:28:46;;;;;;;0.43;0.23;;;;;;;;;;5069941;28;20262;-56
2023/11/16 12:31:17;;;;;;;0.00;0.00;;;;;;;;;;5072370;28;20028;-56
2023/11/16 12:33:44;;;;;;;0.57;0.30;;;;;;;;;;5074670;28;20028;-56
2023/11/16 12:36:14;;;;;;;0.43;0.23;;;;;;;;;;5074739;28;20475;-56
2023/11/16 12:38:41;;;;;;;0.33;0.27;;;;;;;;;;5074360;28;20387;-56
2023/11/16 12:41:07;;;;;;;4.13;1.60;;;;;;;;;;5074121;28;20277;-56
2023/11/16 12:43:34;;;;;;;1.00;0.60;;;;;;;;;;5071665;28;20090;-56
2023/11/16 12:46:01;;;;;;;0.20;0.20;;;;;;;;;;5069912;28;20024;-56
2023/11/16 12:48:28;;;;;;;1.40;0.27;;;;;;;;;;5069432;28;20040;-56
2023/11/16 12:50:55;;;;;;;0.50;0.40;;;;;;;;;;5069528;28;20068;-56
2023/11/16 12:53:22;;;;;;;0.43;0.20;;;;;;;;;;5071521;28;20269;-56
2023/11/16 12:55:48;;;;;;;0.17;0.17;;;;;;;;;;5073672;28;20044;-56
2023/11/16 12:58:15;;;;;;;3.83;0.60;;;;;;;;;;5074562;28;20307;-56
2023/11/16 13:00:42;;;;;;;0.97;0.70;;;;;;;;;;5074105;28;20257;-56
2023/11/16 13:03:09;;;;;;;4.60;1.10;;;;;;;;;;5074367;28;20257;-56
2023/11/16 13:05:35;;;;;;;1.10;0.90;;;;;;;;;;5071954;28;20641;-56
2023/11/16 13:08:03;;;;;;;0.63;0.60;;;;;;;;;;5056792;28;20274;-56
2023/11/16 13:10:31;;;;;;;1.07;0.97;;;;;;;;;;5049187;28;20056;-56
2023/11/16 13:12:57;;;;;;;9.53;3.53;;;;;;;;;;5048731;28;20262;-56
2023/11/16 13:15:24;;;;;;;7.60;3.83;;;;;;;;;;5050876;28;20027;-56
2023/11/16 13:17:51;;;;;;;4.93;2.70;;;;;;;;;;5066010;28;20331;-55
2023/11/16 13:20:19;;;;;;;17.07;2.67;;;;;;;;;;5073564;28;20250;-55
2023/11/16 13:22:46;;;;;;;3.83;1.93;;;;;;;;;;5072172;28;20047;-56
2023/11/16 13:25:14;;;;;;;6.27;1.43;;;;;;;;;;5073499;28;20036;-56
2023/11/16 13:27:43;;;;;;;9.00;1.77;;;;;;;;;;5071743;28;20300;-56
2023/11/16 13:30:10;;;;;;;2.63;1.73;;;;;;;;;;5065099;28;20056;-56
2023/11/16 13:32:37;;;;;;;2.50;1.43;;;;;;;;;;5048718;28;20040;-56
2023/11/16 13:35:10;;;;;;;0.83;0.57;;;;;;;;;;5048635;28;20059;-56
2023/11/16 13:37:39;;;;;;;4.07;1.20;;;;;;;;;;5058757;28;20021;-56
2023/11/16 13:40:11;;;;;;;2.50;0.70;;;;;;;;;;5073471;28;20547;-56
2023/11/16 13:42:41;;;;;;;1.17;0.70;;;;;;;;;;5073219;28;20017;-56
2023/11/16 13:45:17;;;;;;;1.33;0.70;;;;;;;;;;5073446;28;20033;-56
2023/11/16 13:47:44;;;;;;;3.50;0.60;;;;;;;;;;5073413;28;20056;-56
2023/11/16 13:50:11;;;;;;;1.83;1.37;;;;;;;;;;5070478;28;20036;-56
2023/11/16 13:52:42;;;;;;;2.93;1.00;;;;;;;;;;5057781;28;20418;-56
2023/11/16 13:55:10;;;;;;;1.90;1.07;;;;;;;;;;5053994;28;20025;-56
2023/11/16 13:57:40;;;;;;;1.00;0.83;;;;;;;;;;5067712;28;20025;-56
2023/11/16 14:00:11;;;;;;;3.63;1.80;;;;;;;;;;5069820;28;20123;-56
2023/11/16 14:02:41;;;;;;;258.60;113.53;;;;;;;;;;5056363;28;20079;-56
2023/11/16 14:05:11;;;;;;;63.30;29.00;;;;;;;;;;5053126;28;20116;-56
2023/11/16 14:07:38;;;;;;;5.77;3.40;;;;;;;;;;5061411;28;20421;-56
2023/11/16 14:10:07;;;;;;;17.10;8.47;;;;;;;;;;5072751;28;20095;-56
2023/11/16 14:12:34;;;;;;;55.80;25.17;;;;;;;;;;5070547;28;20036;-56
2023/11/16 14:15:00;;;;;;;9.10;4.23;;;;;;;;;;5067875;28;20028;-56
2023/11/16 14:17:27;;;;;;;1.37;0.97;;;;;;;;;;5067818;28;20079;-56
2023/11/16 14:19:54;;;;;;;3.23;0.63;;;;;;;;;;5048431;28;20395;-56
2023/11/16 14:22:21;;;;;;;0.33;0.33;;;;;;;;;;5063973;28;20029;-56
2023/11/16 14:24:48;;;;;;;0.63;0.40;;;;;;;;;;5072644;28;20119;-56
2023/11/16 14:27:14;;;;;;;1.00;0.20;;;;;;;;;;5072182;28;20055;-56
2023/11/16 14:29:41;;;;;;;0.37;0.30;;;;;;;;;;5063615;28;20025;-56
2023/11/16 14:32:08;;;;;;;1.40;0.73;;;;;;;;;;5051725;28;20114;-57
2023/11/16 14:34:35;;;;;;;1.30;0.33;;;;;;;;;;5070611;28;20371;-57
2023/11/16 14:37:04;;;;;;;1.30;0.77;;;;;;;;;;5067377;28;20028;-57
2023/11/16 14:39:33;;;;;;;1.20;0.50;;;;;;;;;;5067387;28;20135;-56
2023/11/16 14:42:00;;;;;;;0.23;0.20;;;;;;;;;;5067331;28;20031;-56
2023/11/16 14:44:28;;;;;;;0.83;0.50;;;;;;;;;;5051734;28;20091;-56
2023/11/16 14:46:54;;;;;;;1.47;0.53;;;;;;;;;;5052222;28;20029;-56
2023/11/16 14:49:21;;;;;;;0.77;0.33;;;;;;;;;;5052033;28;20027;-56